createdAt,value
2023-05-14T00:01:37.393Z,100673.98
2023-05-14T00:05:45.830Z,100672.05
2023-05-14T00:09:53.602Z,100672.25
2023-05-14T00:14:01.692Z,100669.33
2023-05-14T00:18:12.501Z,100666.32
2023-05-14T00:22:21.070Z,100663.31
2023-05-14T00:26:28.742Z,100667.98
2023-05-14T00:30:36.268Z,100670.61
2023-05-14T00:34:44.965Z,100666.99
2023-05-14T00:38:56.367Z,100668.06
2023-05-14T00:43:05.306Z,100666.64
2023-05-14T00:47:13.751Z,100660.02
2023-05-14T00:51:21.810Z,100661.83
2023-05-14T00:55:30.120Z,100658.19
2023-05-14T00:59:37.934Z,100656.55
2023-05-14T01:03:46.221Z,100650.17
2023-05-14T01:08:00.079Z,100647.77
2023-05-14T01:12:14.029Z,100650.46
2023-05-14T01:16:23.005Z,100660.38
2023-05-14T01:20:30.902Z,100667.17
2023-05-14T01:24:38.403Z,100661.61
2023-05-14T01:28:47.742Z,100662.27
2023-05-14T01:32:57.898Z,100662.14
2023-05-14T01:37:06.208Z,100655.30
2023-05-14T01:41:15.894Z,100651.54
2023-05-14T01:45:25.624Z,100653.92
2023-05-14T01:49:33.872Z,100650.60
2023-05-14T01:53:41.826Z,100648.58
2023-05-14T01:57:49.625Z,100650.01
2023-05-14T02:01:57.293Z,100644.84
2023-05-14T02:06:05.162Z,100635.15
2023-05-14T02:10:13.845Z,100640.85
2023-05-14T02:14:21.841Z,100641.17
2023-05-14T02:18:29.855Z,100638.61
2023-05-14T02:22:37.993Z,100637.69
2023-05-14T02:26:46.532Z,100632.74
2023-05-14T02:30:54.578Z,100628.77
2023-05-14T02:35:03.153Z,100634.46
2023-05-14T02:39:11.374Z,100639.27
2023-05-14T02:43:19.731Z,100636.63
2023-05-14T02:47:28.498Z,100635.11
2023-05-14T02:51:35.919Z,100632.27
2023-05-14T02:55:44.052Z,100630.56
2023-05-14T02:59:55.340Z,100628.28
2023-05-14T03:04:03.737Z,100622.86
2023-05-14T03:08:11.018Z,100622.20
2023-05-14T03:12:19.577Z,100628.41
2023-05-14T03:16:28.084Z,100635.61
2023-05-14T03:20:36.122Z,100636.02
2023-05-14T03:24:44.412Z,100636.80
2023-05-14T03:28:52.179Z,100641.36
2023-05-14T03:33:00.153Z,100638.71
2023-05-14T03:37:08.642Z,100629.40
2023-05-14T03:41:18.506Z,100623.78
2023-05-14T03:45:27.165Z,100616.96
2023-05-14T03:49:35.362Z,100612.22
2023-05-14T03:53:48.001Z,100616.19
2023-05-14T03:57:56.129Z,100613.68
2023-05-14T04:02:03.587Z,100617.10
2023-05-14T04:06:11.728Z,100618.29
2023-05-14T04:10:19.087Z,100620.66
2023-05-14T04:14:26.587Z,100625.91
2023-05-14T04:18:35.633Z,100624.21
2023-05-14T04:22:43.554Z,100618.27
2023-05-14T04:26:51.304Z,100620.98
2023-05-14T04:30:59.541Z,100622.64
2023-05-14T04:35:10.230Z,100625.80
2023-05-14T04:39:19.285Z,100627.11
2023-05-14T04:43:27.594Z,100626.32
2023-05-14T04:47:35.604Z,100623.82
2023-05-14T04:51:43.662Z,100616.11
2023-05-14T04:55:52.087Z,100609.75
2023-05-14T04:59:59.534Z,100602.23
2023-05-14T05:04:07.341Z,100599.67
2023-05-14T05:08:14.977Z,100595.02
2023-05-14T05:12:23.048Z,100596.40
2023-05-14T05:16:31.370Z,100591.14
2023-05-14T05:20:39.860Z,100585.63
2023-05-14T05:24:49.921Z,100581.56
2023-05-14T05:29:03.033Z,100581.73
2023-05-14T05:33:11.035Z,100578.92
2023-05-14T05:37:18.239Z,100579.09
2023-05-14T05:41:26.835Z,100577.56
2023-05-14T05:45:34.969Z,100575.61
2023-05-14T05:49:42.829Z,100573.98
2023-05-14T05:53:51.042Z,100569.73
2023-05-14T05:57:58.431Z,100571.55
2023-05-14T06:02:06.637Z,100579.73
2023-05-14T06:06:15.961Z,100575.52
2023-05-14T06:10:24.736Z,100572.93
2023-05-14T06:14:32.170Z,100566.91
2023-05-14T06:18:40.300Z,100566.67
2023-05-14T06:22:48.736Z,100570.27
2023-05-14T06:26:56.394Z,100570.92
2023-05-14T06:31:04.261Z,100569.89
2023-05-14T06:35:12.984Z,100563.64
2023-05-14T06:39:20.886Z,100564.79
2023-05-14T06:43:28.604Z,100565.63
2023-05-14T06:47:36.151Z,100563.46
2023-05-14T06:51:44.459Z,100558.04
2023-05-14T06:55:52.248Z,100554.70
2023-05-14T07:00:02.876Z,100543.47
2023-05-14T07:04:12.429Z,100539.59
2023-05-14T07:08:20.636Z,100533.88
2023-05-14T07:12:28.942Z,100525.15
2023-05-14T07:16:37.063Z,100522.16
2023-05-14T07:20:44.226Z,100517.16
2023-05-14T07:24:52.623Z,100514.84
2023-05-14T07:29:00.741Z,100514.48
2023-05-14T07:33:10.589Z,100510.06
2023-05-14T07:37:18.422Z,100506.13
2023-05-14T07:41:25.814Z,100506.19
2023-05-14T07:45:33.274Z,100506.64
2023-05-14T07:49:40.983Z,100505.14
2023-05-14T07:53:48.689Z,100503.92
2023-05-14T07:57:56.261Z,100499.77
2023-05-14T08:02:03.615Z,100495.31
2023-05-14T08:06:11.982Z,100494.80
2023-05-14T08:10:20.665Z,100487.95
2023-05-14T08:14:28.960Z,100488.49
2023-05-14T08:18:36.764Z,100484.25
2023-05-14T08:22:47.219Z,100480.00
2023-05-14T08:26:54.808Z,100482.27
2023-05-14T08:31:04.202Z,100479.11
2023-05-14T08:35:12.861Z,100478.89
2023-05-14T08:39:21.042Z,100475.02
2023-05-14T08:43:31.641Z,100471.64
2023-05-14T08:47:39.738Z,100467.59
2023-05-14T08:51:50.042Z,100460.52
2023-05-14T08:55:59.886Z,100460.76
2023-05-14T09:00:11.670Z,100455.86
2023-05-14T09:04:23.252Z,100450.11
2023-05-14T09:08:31.048Z,100439.52
2023-05-14T09:12:38.790Z,100430.48
2023-05-14T09:16:48.517Z,100430.68
2023-05-14T09:20:56.366Z,100436.05
2023-05-14T09:25:12.528Z,100430.64
2023-05-14T09:29:20.498Z,100418.73
2023-05-14T09:33:35.340Z,100410.63
2023-05-14T09:37:49.142Z,100404.59
2023-05-14T09:41:57.814Z,100395.97
2023-05-14T09:46:05.838Z,100391.59
2023-05-14T09:50:14.133Z,100382.31
2023-05-14T09:54:23.505Z,100377.08
2023-05-14T09:58:31.434Z,100373.08
2023-05-14T10:02:41.536Z,100374.94
2023-05-14T10:06:54.579Z,100370.39
2023-05-14T10:11:05.497Z,100364.63
2023-05-14T10:15:21.896Z,100359.36
2023-05-14T10:19:30.211Z,100358.05
2023-05-14T10:23:39.051Z,100352.37
2023-05-14T10:27:47.412Z,100349.02
2023-05-14T10:31:57.522Z,100343.51
2023-05-14T10:36:08.755Z,100343.17
2023-05-14T10:40:18.742Z,100337.80
2023-05-14T10:44:26.074Z,100336.45
2023-05-14T10:48:35.285Z,100331.10
2023-05-14T10:52:44.414Z,100329.49
2023-05-14T10:56:55.602Z,100320.52
2023-05-14T11:01:03.810Z,100319.24
2023-05-14T11:05:18.048Z,100310.36
2023-05-14T11:09:27.658Z,100298.04
2023-05-14T11:13:35.420Z,100299.55
2023-05-14T11:17:44.915Z,100298.02
2023-05-14T11:21:55.889Z,100300.86
2023-05-14T11:26:03.432Z,100295.00
2023-05-14T11:30:16.351Z,100288.90
2023-05-14T11:34:23.889Z,100285.23
2023-05-14T11:38:31.524Z,100285.42
2023-05-14T11:42:39.585Z,100281.16
2023-05-14T11:46:57.105Z,100271.34
2023-05-14T11:51:05.998Z,100264.79
2023-05-14T11:55:15.996Z,100256.79
2023-05-14T11:59:25.350Z,100256.32
2023-05-14T12:03:35.211Z,100254.61
2023-05-14T12:07:45.669Z,100251.09
2023-05-14T12:11:55.175Z,100246.96
2023-05-14T12:16:03.946Z,100249.01
2023-05-14T12:20:14.555Z,100241.41
2023-05-14T12:24:25.112Z,100238.55
2023-05-14T12:28:34.292Z,100233.80
2023-05-14T12:32:44.192Z,100227.77
2023-05-14T12:36:54.201Z,100220.02
2023-05-14T12:41:01.732Z,100214.27
2023-05-14T12:45:11.150Z,100214.10
2023-05-14T12:49:18.691Z,100206.81
2023-05-14T12:53:27.060Z,100199.26
2023-05-14T12:57:35.826Z,100198.03
2023-05-14T13:01:44.979Z,100197.58
2023-05-14T13:05:54.861Z,100199.30
2023-05-14T13:10:02.516Z,100185.64
2023-05-14T13:14:10.451Z,100181.74
2023-05-14T13:18:19.637Z,100179.45
2023-05-14T13:22:29.153Z,100171.42
2023-05-14T13:26:37.253Z,100169.73
2023-05-14T13:30:45.011Z,100162.87
2023-05-14T13:34:52.495Z,100156.34
2023-05-14T13:39:01.014Z,100148.88
2023-05-14T13:43:10.089Z,100152.27
2023-05-14T13:47:18.072Z,100147.83
2023-05-14T13:51:25.854Z,100144.70
2023-05-14T13:55:33.925Z,100146.14
2023-05-14T13:59:41.412Z,100139.79
2023-05-14T14:03:48.808Z,100139.41
2023-05-14T14:08:00.865Z,100139.24
2023-05-14T14:12:16.191Z,100135.88
2023-05-14T14:16:23.854Z,100135.30
2023-05-14T14:20:32.099Z,100133.05
2023-05-14T14:24:41.246Z,100132.94
2023-05-14T14:28:48.615Z,100126.95
2023-05-14T14:32:56.492Z,100126.79
2023-05-14T14:37:03.817Z,100120.17
2023-05-14T14:41:12.536Z,100113.70
2023-05-14T14:45:20.471Z,100112.34
2023-05-14T14:49:29.330Z,100117.73
2023-05-14T14:53:37.878Z,100112.17
2023-05-14T14:57:45.482Z,100115.08
2023-05-14T15:01:54.101Z,100109.95
2023-05-14T15:06:02.884Z,100109.78
2023-05-14T15:10:13.376Z,100109.06
2023-05-14T15:14:21.836Z,100099.73
2023-05-14T15:18:30.056Z,100099.83
2023-05-14T15:22:40.610Z,100100.54
2023-05-14T15:26:48.011Z,100093.72
2023-05-14T15:30:56.365Z,100092.17
2023-05-14T15:35:04.177Z,100093.86
2023-05-14T15:39:12.298Z,100089.15
2023-05-14T15:43:20.151Z,100084.90
2023-05-14T15:47:28.132Z,100077.67
2023-05-14T15:51:35.860Z,100076.30
2023-05-14T15:55:43.391Z,100072.42
2023-05-14T15:59:51.535Z,100068.13
2023-05-14T16:03:59.081Z,100066.05
2023-05-14T16:08:06.864Z,100067.94
2023-05-14T16:12:14.499Z,100068.87
2023-05-14T16:16:23.714Z,100075.48
2023-05-14T16:20:31.223Z,100071.35
2023-05-14T16:24:40.434Z,100064.42
2023-05-14T16:28:49.876Z,100059.16
2023-05-14T16:32:57.746Z,100055.79
2023-05-14T16:37:05.777Z,100051.36
2023-05-14T16:41:13.386Z,100051.51
2023-05-14T16:45:22.230Z,100055.58
2023-05-14T16:49:29.628Z,100054.59
2023-05-14T16:53:38.978Z,100052.21
2023-05-14T16:57:47.208Z,100048.48
2023-05-14T17:01:55.597Z,100052.84
2023-05-14T17:06:04.750Z,100052.02
2023-05-14T17:10:14.197Z,100046.27
2023-05-14T17:14:21.945Z,100045.55
2023-05-14T17:18:33.337Z,100044.23
2023-05-14T17:22:42.061Z,100053.39
2023-05-14T17:26:50.050Z,100055.26
2023-05-14T17:30:57.803Z,100052.44
2023-05-14T17:35:05.573Z,100056.63
2023-05-14T17:39:13.131Z,100049.16
2023-05-14T17:43:21.566Z,100050.70
2023-05-14T17:47:29.531Z,100045.48
2023-05-14T17:51:38.947Z,100044.02
2023-05-14T17:55:46.765Z,100045.55
2023-05-14T17:59:54.768Z,100045.12
2023-05-14T18:04:02.486Z,100045.63
2023-05-14T18:08:09.932Z,100048.51
2023-05-14T18:12:17.881Z,100044.91
2023-05-14T18:16:25.392Z,100044.56
2023-05-14T18:20:35.346Z,100042.88
2023-05-14T18:24:44.478Z,100041.64
2023-05-14T18:28:52.655Z,100039.41
2023-05-14T18:33:00.490Z,100034.77
2023-05-14T18:37:09.212Z,100027.52
2023-05-14T18:41:17.059Z,100031.63
2023-05-14T18:45:24.525Z,100029.23
2023-05-14T18:49:32.632Z,100026.77
2023-05-14T18:53:40.692Z,100027.02
2023-05-14T18:57:47.954Z,100025.04
2023-05-14T19:01:56.931Z,100023.33
2023-05-14T19:06:07.597Z,100023.62
2023-05-14T19:10:15.185Z,100025.15
2023-05-14T19:14:23.298Z,100028.31
2023-05-14T19:18:31.047Z,100026.30
2023-05-14T19:22:39.793Z,100022.23
2023-05-14T19:26:48.275Z,100020.48
2023-05-14T19:30:57.389Z,100012.64
2023-05-14T19:35:05.245Z,100014.25
2023-05-14T19:39:13.710Z,100015.02
2023-05-14T19:43:22.438Z,100009.66
2023-05-14T19:47:30.886Z,100004.56
2023-05-14T19:51:44.184Z,100005.61
2023-05-14T19:55:55.925Z,100003.36
2023-05-14T20:00:04.778Z,100007.47
2023-05-14T20:04:14.230Z,99998.98
2023-05-14T20:08:22.725Z,99986.08
2023-05-14T20:12:30.526Z,99987.71
2023-05-14T20:16:38.373Z,99981.61
2023-05-14T20:20:45.913Z,99981.02
2023-05-14T20:24:54.016Z,99969.90
2023-05-14T20:29:02.647Z,99964.91
2023-05-14T20:33:10.827Z,99968.65
2023-05-14T20:37:19.961Z,99973.94
2023-05-14T20:41:27.687Z,99951.34
2023-05-14T20:45:35.118Z,99949.85
2023-05-14T20:49:42.982Z,99940.33
2023-05-14T20:53:51.282Z,99928.80
2023-05-14T20:57:58.871Z,99925.21
2023-05-14T21:02:07.058Z,99921.88
2023-05-14T21:06:14.890Z,99917.18
2023-05-14T21:10:22.712Z,99915.36
2023-05-14T21:14:30.393Z,99922.52
2023-05-14T21:18:39.476Z,99916.84
2023-05-14T21:22:49.641Z,99908.45
2023-05-14T21:26:57.823Z,99911.08
2023-05-14T21:31:06.188Z,99917.79
2023-05-14T21:35:14.170Z,99921.52
2023-05-14T21:39:21.655Z,99942.38
2023-05-14T21:43:29.150Z,99959.21
2023-05-14T21:47:37.073Z,99961.04
2023-05-14T21:51:44.752Z,99958.09
2023-05-14T21:55:52.127Z,99951.13
2023-05-14T21:59:59.785Z,99946.56
2023-05-14T22:04:07.851Z,99941.11
2023-05-14T22:08:17.199Z,99937.80
2023-05-14T22:12:25.165Z,99933.66
2023-05-14T22:16:32.795Z,99925.73
2023-05-14T22:20:41.379Z,99918.86
2023-05-14T22:24:49.404Z,99915.71
2023-05-14T22:28:58.004Z,99907.63
2023-05-14T22:33:05.769Z,99896.24
2023-05-14T22:37:14.264Z,99894.44
2023-05-14T22:41:22.704Z,99885.60
2023-05-14T22:45:30.063Z,99878.34
2023-05-14T22:49:38.190Z,99872.29
2023-05-14T22:53:47.339Z,99866.13
2023-05-14T22:57:55.045Z,99859.27
2023-05-14T23:02:03.098Z,99858.76
2023-05-14T23:06:13.835Z,99854.78
2023-05-14T23:10:21.637Z,99854.05
2023-05-14T23:14:29.214Z,99842.73
2023-05-14T23:18:36.922Z,99839.85
2023-05-14T23:22:45.103Z,99833.05
2023-05-14T23:26:53.314Z,99828.78
2023-05-14T23:31:01.428Z,99817.91
2023-05-14T23:35:10.079Z,99812.59
2023-05-14T23:39:19.218Z,99803.52
2023-05-14T23:43:27.375Z,99798.46
2023-05-14T23:47:35.217Z,99788.09
2023-05-14T23:51:43.273Z,99783.31
2023-05-14T23:55:51.083Z,99770.63
2023-05-14T23:59:59.196Z,99760.47
